Time;durP1;ratioP1;P1;durP2;ratioP2;P2;SDS_P1;SDS_P2;PMS_P1;PMS_P2;Temp;Humidity;BMP_temperature;BMP_pressure;BME280_temperature;BME280_humidity;BME280_pressure;Samples;Min_cycle;Max_cycle;Signal;HPM_P1;HPM_P2
2022/09/23 00:01:52;;;;;;;8.00;2.73;;;10.80;99.90;;;;;;7371240;19;20401;-79
2022/09/23 00:04:22;;;;;;;2.70;2.33;;;10.80;99.90;;;;;;7372503;19;20404;-80
2022/09/23 00:06:51;;;;;;;3.30;2.30;;;10.70;99.90;;;;;;7368372;19;20795;-79
2022/09/23 00:09:24;;;;;;;3.50;2.97;;;10.70;99.90;;;;;;7364494;19;20433;-80
2022/09/23 00:11:56;;;;;;;3.10;2.67;;;10.80;99.90;;;;;;7370714;19;20518;-79
2022/09/23 00:14:25;;;;;;;4.03;3.10;;;10.90;99.90;;;;;;7367385;19;20833;-79
2022/09/23 00:16:55;;;;;;;4.73;2.80;;;10.80;99.90;;;;;;7361761;19;20451;-79
2022/09/23 00:19:24;;;;;;;2.90;2.60;;;10.90;99.90;;;;;;7356807;19;20409;-77
2022/09/23 00:21:55;;;;;;;5.10;2.83;;;10.80;99.90;;;;;;7366802;19;20428;-78
2022/09/23 00:24:25;;;;;;;2.90;2.60;;;10.60;99.90;;;;;;7360975;19;20433;-78
2022/09/23 00:26:57;;;;;;;4.93;2.60;;;10.60;99.90;;;;;;7374122;19;20404;-77
2022/09/23 00:29:26;;;;;;;3.67;3.07;;;10.30;99.90;;;;;;7363134;19;20484;-77
2022/09/23 00:31:56;;;;;;;5.60;2.65;;;10.30;99.90;;;;;;7364352;19;20415;-78
2022/09/23 00:34:25;;;;;;;3.10;2.80;;;10.30;99.90;;;;;;7366634;19;20211;-78
2022/09/23 00:36:55;;;;;;;4.30;2.50;;;10.40;99.90;;;;;;7368064;19;20837;-79
2022/09/23 00:39:25;;;;;;;3.23;2.73;;;10.40;99.90;;;;;;7363548;19;20404;-79
2022/09/23 00:41:57;;;;;;;4.17;3.77;;;10.30;99.90;;;;;;7374509;19;20419;-80
2022/09/23 00:44:50;;;;;;;2.70;2.40;;;10.20;99.90;;;;;;7357683;19;20416;-77
2022/09/23 00:47:24;;;;;;;3.87;2.87;;;10.10;99.90;;;;;;7367080;19;20443;-77
2022/09/23 00:50:00;;;;;;;3.07;2.50;;;10.10;99.90;;;;;;7371225;19;20420;-77
2022/09/23 00:52:31;;;;;;;5.40;2.60;;;10.00;99.90;;;;;;7368920;19;21287;-78
2022/09/23 00:55:02;;;;;;;6.23;3.23;;;9.90;99.90;;;;;;7367906;19;20441;-78
2022/09/23 00:57:35;;;;;;;4.90;2.80;;;9.90;99.90;;;;;;7371852;19;21219;-78
2022/09/23 01:00:07;;;;;;;3.40;2.80;;;10.00;99.90;;;;;;7370536;19;21151;-78
2022/09/23 01:02:37;;;;;;;3.80;2.50;;;10.10;99.90;;;;;;7361185;19;21448;-79
2022/09/23 01:05:08;;;;;;;3.10;2.73;;;10.10;99.90;;;;;;7364439;19;20401;-79
2022/09/23 01:07:40;;;;;;;3.03;2.73;;;10.30;99.90;;;;;;7370454;19;20404;-78
2022/09/23 01:10:12;;;;;;;3.10;2.80;;;10.40;99.90;;;;;;7364044;19;20496;-78
2022/09/23 01:12:57;;;;;;;5.07;3.30;;;10.40;99.90;;;;;;7361928;19;20601;-79
2022/09/23 01:15:33;;;;;;;6.00;2.67;;;10.50;99.90;;;;;;7365187;19;20416;-79
2022/09/23 01:18:15;;;;;;;3.10;2.80;;;10.40;99.90;;;;;;7363904;19;20952;-78
2022/09/23 01:20:58;;;;;;;2.90;2.70;;;10.30;99.90;;;;;;7374906;19;20401;-79
2022/09/23 01:23:53;;;;;;;2.67;2.47;;;10.30;99.90;;;;;;7367946;19;20383;-79
2022/09/23 01:26:48;;;;;;;2.90;2.33;;;10.30;99.90;;;;;;7364680;19;21017;-78
2022/09/23 01:29:51;;;;;;;3.80;2.77;;;10.20;99.90;;;;;;7363899;19;20467;-79
2022/09/23 01:32:34;;;;;;;3.30;2.93;;;10.10;99.90;;;;;;7364853;19;20415;-78
2022/09/23 01:35:09;;;;;;;3.63;3.10;;;10.00;99.90;;;;;;7371352;19;20408;-78
2022/09/23 01:37:47;;;;;;;5.90;2.97;;;10.00;99.90;;;;;;7369652;19;20918;-79
2022/09/23 01:40:22;;;;;;;5.90;2.50;;;10.00;99.90;;;;;;7369154;19;20435;-80
2022/09/23 01:42:58;;;;;;;3.30;3.00;;;9.80;99.90;;;;;;7371118;19;20494;-78
2022/09/23 01:45:35;;;;;;;3.60;2.50;;;9.70;99.90;;;;;;7369780;19;20433;-79
2022/09/23 01:48:13;;;;;;;4.80;3.00;;;9.80;99.90;;;;;;7370824;19;20949;-79
2022/09/23 01:51:00;;;;;;;2.93;2.50;;;9.90;99.90;;;;;;7372107;19;20404;-79
2022/09/23 01:53:38;;;;;;;3.97;2.63;;;10.10;99.90;;;;;;7372397;19;20512;-79
2022/09/23 01:56:12;;;;;;;5.53;3.10;;;10.20;99.90;;;;;;7375495;19;20395;-79
2022/09/23 01:58:45;;;;;;;2.70;2.40;;;10.00;99.90;;;;;;7377452;19;21155;-79
2022/09/23 02:01:21;;;;;;;3.10;2.63;;;10.00;99.90;;;;;;7380546;19;20803;-79
2022/09/23 02:03:58;;;;;;;3.58;2.75;;;10.00;99.90;;;;;;7377350;19;20403;-79
2022/09/23 02:06:31;;;;;;;4.07;3.20;;;9.90;99.90;;;;;;7378649;19;20143;-79
2022/09/23 02:09:03;;;;;;;3.37;2.67;;;9.90;99.90;;;;;;7373398;19;20923;-79
2022/09/23 02:11:35;;;;;;;3.70;3.27;;;9.80;99.90;;;;;;7376668;19;20475;-79
2022/09/23 02:14:09;;;;;;;3.10;2.80;;;9.90;99.90;;;;;;7379337;19;21387;-78
2022/09/23 02:16:46;;;;;;;3.67;3.37;;;9.90;99.90;;;;;;7378405;19;20419;-79
2022/09/23 02:19:25;;;;;;;5.05;3.60;;;9.90;99.90;;;;;;7376333;19;21064;-78
2022/09/23 02:21:59;;;;;;;4.87;3.23;;;9.60;99.90;;;;;;7379156;19;20150;-79
2022/09/23 02:24:31;;;;;;;6.10;3.33;;;9.70;99.90;;;;;;7377548;19;20423;-77
2022/09/23 02:27:09;;;;;;;3.30;3.00;;;9.70;99.90;;;;;;7372776;19;20729;-77
2022/09/23 02:29:48;;;;;;;7.33;3.30;;;9.80;99.90;;;;;;7372389;19;20943;-78
2022/09/23 02:32:22;;;;;;;4.20;3.40;;;9.90;99.90;;;;;;7375455;19;20414;-79
2022/09/23 02:35:00;;;;;;;4.78;3.92;;;9.70;99.90;;;;;;7372408;19;20934;-78
2022/09/23 02:37:41;;;;;;;4.20;3.55;;;9.70;99.90;;;;;;7374490;19;20139;-78
2022/09/23 02:40:18;;;;;;;3.65;2.72;;;9.70;99.90;;;;;;7376289;19;20611;-78
2022/09/23 02:42:54;;;;;;;4.20;2.63;;;9.60;99.90;;;;;;7375049;19;20243;-78
2022/09/23 02:45:24;;;;;;;6.80;3.20;;;9.60;99.90;;;;;;7376325;19;20923;-78
2022/09/23 02:47:59;;;;;;;6.33;2.90;;;9.80;99.90;;;;;;7369580;19;20147;-78
2022/09/23 02:50:32;;;;;;;3.23;2.93;;;9.90;99.90;;;;;;7371290;19;20778;-79
2022/09/23 02:53:02;;;;;;;4.03;3.63;;;9.90;99.90;;;;;;7369395;19;20397;-79
2022/09/23 02:55:32;;;;;;;6.10;3.60;;;9.70;99.90;;;;;;7376466;19;20408;-79
2022/09/23 02:58:04;;;;;;;4.10;3.50;;;9.90;99.90;;;;;;7371591;19;20365;-78
2022/09/23 03:00:46;;;;;;;3.90;3.50;;;9.80;99.90;;;;;;7376462;19;20967;-80
2022/09/23 03:03:31;;;;;;;3.95;3.35;;;9.40;99.90;;;;;;7373720;19;20856;-79
2022/09/23 03:06:11;;;;;;;3.50;3.20;;;9.20;99.90;;;;;;7371607;19;20167;-78
2022/09/23 03:08:52;;;;;;;3.83;3.50;;;9.40;99.90;;;;;;7367240;19;20913;-80
2022/09/23 03:11:24;;;;;;;12.15;4.10;;;9.50;99.90;;;;;;7375618;19;20978;-79
2022/09/23 03:14:07;;;;;;;4.35;3.50;;;9.50;99.90;;;;;;7369037;19;20139;-79
2022/09/23 03:16:45;;;;;;;4.03;3.40;;;9.50;99.90;;;;;;7372423;19;20263;-80
2022/09/23 03:19:25;;;;;;;4.57;4.18;;;9.40;99.90;;;;;;7374865;19;20264;-79
2022/09/23 03:22:04;;;;;;;3.90;3.50;;;9.50;99.90;;;;;;7371357;19;20139;-80
2022/09/23 03:24:38;;;;;;;4.40;3.40;;;9.60;99.90;;;;;;7377357;19;20473;-80
2022/09/23 03:27:12;;;;;;;4.80;3.40;;;9.60;99.90;;;;;;7374055;19;20392;-80
2022/09/23 03:29:46;;;;;;;4.50;3.30;;;9.70;99.90;;;;;;7375380;19;20419;-80
2022/09/23 03:32:18;;;;;;;4.18;3.17;;;9.60;99.90;;;;;;7374960;19;20147;-80
2022/09/23 03:34:51;;;;;;;4.93;3.22;;;9.50;99.90;;;;;;7374756;19;20143;-80
2022/09/23 03:37:30;;;;;;;3.58;3.28;;;9.40;99.90;;;;;;7373356;19;20170;-80
2022/09/23 03:40:08;;;;;;;7.47;4.07;;;9.60;99.90;;;;;;7373730;19;20756;-80
2022/09/23 03:42:41;;;;;;;4.63;3.83;;;9.40;99.90;;;;;;7375107;19;20155;-80
2022/09/23 03:45:17;;;;;;;3.65;3.35;;;9.20;99.90;;;;;;7373621;19;20170;-80
2022/09/23 03:47:47;;;;;;;5.25;3.63;;;9.20;99.90;;;;;;7374319;19;20240;-80
2022/09/23 03:50:17;;;;;;;3.42;3.13;;;9.10;99.90;;;;;;7373727;19;20172;-80
2022/09/23 03:52:49;;;;;;;4.32;3.50;;;9.10;99.90;;;;;;7375949;19;20493;-80
2022/09/23 03:55:20;;;;;;;4.55;3.30;;;9.20;99.90;;;;;;7376474;19;20155;-80
2022/09/23 03:57:50;;;;;;;4.30;3.60;;;9.30;99.90;;;;;;7373589;19;20160;-80
2022/09/23 04:00:19;;;;;;;5.35;4.43;;;9.30;99.90;;;;;;7377160;19;20164;-80
2022/09/23 04:02:49;;;;;;;4.50;3.47;;;9.30;99.90;;;;;;7370281;19;20149;-80
2022/09/23 04:05:30;;;;;;;5.57;4.18;;;9.00;99.90;;;;;;7370718;19;20764;-78
2022/09/23 04:08:02;;;;;;;4.68;3.45;;;9.10;99.90;;;;;;7371953;19;20227;-80
2022/09/23 04:10:34;;;;;;;4.70;4.00;;;9.00;99.90;;;;;;7370688;19;20483;-79
2022/09/23 04:13:03;;;;;;;4.53;3.20;;;8.90;99.90;;;;;;7372261;19;20144;-81
2022/09/23 04:15:32;;;;;;;4.90;4.05;;;8.90;99.90;;;;;;7369047;19;20160;-79
2022/09/23 04:18:04;;;;;;;5.70;4.20;;;9.00;99.90;;;;;;7369453;19;20143;-79
2022/09/23 04:20:34;;;;;;;3.60;3.30;;;9.00;99.90;;;;;;7369203;19;20155;-80
2022/09/23 04:23:06;;;;;;;3.97;3.65;;;9.00;99.90;;;;;;7368920;19;20520;-78
2022/09/23 04:25:35;;;;;;;6.23;3.47;;;9.10;99.90;;;;;;7368646;19;21082;-80
2022/09/23 04:28:04;;;;;;;4.05;3.65;;;9.20;99.90;;;;;;7369783;19;20412;-78
2022/09/23 04:30:34;;;;;;;4.65;3.10;;;9.20;99.90;;;;;;7367567;19;24016;-79
2022/09/23 04:33:03;;;;;;;4.65;4.13;;;9.20;99.90;;;;;;7364263;19;20175;-79
2022/09/23 04:35:37;;;;;;;4.65;2.97;;;9.30;99.90;;;;;;7365779;19;20173;-80
2022/09/23 04:38:09;;;;;;;4.20;3.80;;;9.20;99.90;;;;;;7365347;19;20149;-80
2022/09/23 04:40:39;;;;;;;5.05;3.60;;;9.40;99.90;;;;;;7366078;19;20150;-79
2022/09/23 04:43:08;;;;;;;4.40;3.50;;;9.40;99.90;;;;;;7373062;19;20890;-79
2022/09/23 04:45:38;;;;;;;7.00;4.77;;;9.40;99.90;;;;;;7366973;19;20404;-80
2022/09/23 04:48:09;;;;;;;4.68;3.85;;;9.40;99.90;;;;;;7357967;19;20420;-80
2022/09/23 04:50:39;;;;;;;4.00;3.60;;;9.50;99.90;;;;;;7365776;19;20552;-81
2022/09/23 04:53:13;;;;;;;4.90;3.60;;;9.40;99.90;;;;;;7372359;19;20428;-81
2022/09/23 04:55:42;;;;;;;8.05;4.03;;;9.40;99.90;;;;;;7364613;19;20399;-80
2022/09/23 04:58:11;;;;;;;4.53;4.13;;;9.30;99.90;;;;;;7370588;19;21949;-80
2022/09/23 05:00:41;;;;;;;6.18;4.13;;;9.10;99.90;;;;;;7372508;19;20135;-80
2022/09/23 05:03:11;;;;;;;5.07;3.85;;;9.10;99.90;;;;;;7368571;19;20140;-80
2022/09/23 05:05:40;;;;;;;4.63;4.15;;;9.10;99.90;;;;;;7361890;19;20140;-79
2022/09/23 05:08:12;;;;;;;4.68;3.90;;;8.90;99.90;;;;;;7370442;19;20139;-80
2022/09/23 05:10:42;;;;;;;4.90;4.28;;;9.10;99.90;;;;;;7352915;19;20139;-80
2022/09/23 05:13:13;;;;;;;7.32;4.07;;;9.30;99.90;;;;;;7366582;19;20186;-80
2022/09/23 05:15:43;;;;;;;7.60;5.07;;;9.30;99.90;;;;;;7369930;19;20158;-79
2022/09/23 05:18:12;;;;;;;4.45;3.95;;;9.00;99.90;;;;;;7373999;19;20203;-80
2022/09/23 05:20:44;;;;;;;5.78;4.60;;;8.70;99.90;;;;;;7368236;19;20135;-80
2022/09/23 05:23:18;;;;;;;6.65;4.50;;;8.70;99.90;;;;;;7368328;19;20232;-80
2022/09/23 05:25:51;;;;;;;5.30;4.05;;;8.80;99.90;;;;;;7367948;19;20179;-79
2022/09/23 05:28:21;;;;;;;4.70;4.30;;;8.70;99.90;;;;;;7367005;19;20177;-79
2022/09/23 05:30:50;;;;;;;7.03;4.32;;;8.70;99.90;;;;;;7374755;19;20146;-78
2022/09/23 05:33:22;;;;;;;4.63;3.53;;;9.00;99.90;;;;;;7380808;19;20140;-79
2022/09/23 05:35:52;;;;;;;4.63;3.90;;;9.10;99.90;;;;;;7384609;19;20139;-79
2022/09/23 05:38:24;;;;;;;5.40;3.90;;;9.10;99.90;;;;;;7381599;19;20139;-81
2022/09/23 05:40:58;;;;;;;4.40;4.00;;;9.20;99.90;;;;;;7369357;19;20418;-81
2022/09/23 05:43:30;;;;;;;4.60;3.70;;;9.10;99.90;;;;;;7381376;19;20717;-80
2022/09/23 05:46:04;;;;;;;4.10;3.50;;;9.00;99.90;;;;;;7390522;19;20227;-80
2022/09/23 05:48:34;;;;;;;4.40;4.00;;;8.90;99.90;;;;;;7388477;19;20667;-80
2022/09/23 05:51:07;;;;;;;4.10;3.70;;;8.70;99.90;;;;;;7380469;19;20135;-80
2022/09/23 05:53:43;;;;;;;4.40;4.00;;;8.90;99.90;;;;;;7382942;19;20614;-80
2022/09/23 05:56:13;;;;;;;5.00;3.63;;;9.00;99.90;;;;;;7377003;19;20206;-80
2022/09/23 05:58:43;;;;;;;4.03;3.43;;;9.20;99.90;;;;;;7379123;19;20395;-81
2022/09/23 06:01:13;;;;;;;4.70;3.25;;;9.50;99.90;;;;;;7380433;19;20419;-81
2022/09/23 06:03:43;;;;;;;4.70;3.70;;;9.50;99.90;;;;;;7381011;19;20588;-82
2022/09/23 06:06:16;;;;;;;4.38;3.97;;;9.50;99.90;;;;;;7383644;19;20626;-81
2022/09/23 06:08:49;;;;;;;4.07;3.67;;;9.60;99.90;;;;;;7385427;19;20147;-81
2022/09/23 06:11:21;;;;;;;5.40;3.90;;;9.70;99.90;;;;;;7385636;19;21414;-81
2022/09/23 06:13:51;;;;;;;5.70;4.10;;;9.80;99.90;;;;;;7386532;19;20401;-81
2022/09/23 06:16:20;;;;;;;13.37;5.03;;;9.70;99.90;;;;;;7381409;19;20428;-81
2022/09/23 06:18:50;;;;;;;4.55;4.10;;;9.70;99.90;;;;;;7383487;19;20410;-80
2022/09/23 06:21:22;;;;;;;5.80;4.93;;;9.70;99.90;;;;;;7385937;19;20222;-81
2022/09/23 06:23:55;;;;;;;6.10;4.43;;;9.70;99.90;;;;;;7384739;19;20521;-81
2022/09/23 06:26:25;;;;;;;8.17;4.83;;;9.80;99.90;;;;;;7385415;19;20971;-81
2022/09/23 06:28:54;;;;;;;5.87;5.27;;;10.10;99.90;;;;;;7387197;19;21358;-80
2022/09/23 06:31:23;;;;;;;8.60;5.20;;;10.00;99.90;;;;;;7381819;19;20941;-80
2022/09/23 06:33:53;;;;;;;8.70;5.67;;;9.80;99.90;;;;;;7391183;19;20997;-81
2022/09/23 06:36:22;;;;;;;8.67;6.40;;;9.80;99.90;;;;;;7387179;19;20471;-81
2022/09/23 06:38:54;;;;;;;6.67;5.67;;;9.90;99.90;;;;;;7386491;19;20412;-81
2022/09/23 06:41:24;;;;;;;12.53;6.63;;;10.00;99.90;;;;;;7380585;19;20412;-81
2022/09/23 06:43:53;;;;;;;5.27;4.60;;;10.30;99.90;;;;;;7377072;19;20995;-81
2022/09/23 06:46:23;;;;;;;6.20;4.80;;;10.60;99.90;;;;;;7379098;19;20403;-81
2022/09/23 06:48:52;;;;;;;6.03;4.53;;;10.90;99.90;;;;;;7382261;19;20680;-80
2022/09/23 06:51:21;;;;;;;11.70;5.57;;;11.20;99.90;;;;;;7374827;19;20717;-80
2022/09/23 06:53:54;;;;;;;18.10;9.27;;;11.30;99.90;;;;;;7379616;19;20520;-79
2022/09/23 06:56:23;;;;;;;16.27;7.77;;;11.20;99.90;;;;;;7379294;19;20383;-79
2022/09/23 06:58:54;;;;;;;8.40;6.60;;;11.40;99.90;;;;;;7378225;19;20835;-80
2022/09/23 07:01:26;;;;;;;12.10;7.50;;;11.60;99.90;;;;;;7380568;19;20841;-81
2022/09/23 07:03:58;;;;;;;10.40;5.63;;;11.50;98.60;;;;;;7376546;19;21107;-78
2022/09/23 07:06:28;;;;;;;7.37;5.13;;;11.70;99.20;;;;;;7376334;19;20388;-81
2022/09/23 07:09:02;;;;;;;6.87;4.90;;;11.80;97.00;;;;;;7376760;19;20396;-78
2022/09/23 07:11:34;;;;;;;7.67;4.57;;;12.00;95.70;;;;;;7390096;19;20640;-75
2022/09/23 07:14:04;;;;;;;6.50;5.00;;;12.00;95.90;;;;;;7400354;19;21184;-78
2022/09/23 07:16:33;;;;;;;7.97;5.00;;;12.40;96.50;;;;;;7401094;19;20910;-78
2022/09/23 07:19:03;;;;;;;6.00;4.50;;;12.80;95.90;;;;;;7400819;19;20403;-77
2022/09/23 07:21:32;;;;;;;7.47;4.60;;;13.20;92.90;;;;;;7402012;19;20408;-76
2022/09/23 07:24:04;;;;;;;6.83;4.63;;;13.60;90.60;;;;;;7398386;19;21546;-76
2022/09/23 07:26:34;;;;;;;5.10;4.07;;;13.90;87.50;;;;;;7396360;19;20842;-77
2022/09/23 07:29:05;;;;;;;5.00;4.37;;;14.00;87.00;;;;;;7398729;19;20393;-76
2022/09/23 07:31:36;;;;;;;7.10;5.07;;;14.30;83.80;;;;;;7396910;19;20412;-77
2022/09/23 07:34:05;;;;;;;7.33;5.03;;;14.50;81.10;;;;;;7400363;19;20815;-78
2022/09/23 07:36:36;;;;;;;5.83;4.70;;;14.70;79.80;;;;;;7389785;19;20427;-79
2022/09/23 07:39:12;;;;;;;6.90;4.53;;;14.80;77.50;;;;;;7379763;19;20388;-79
2022/09/23 07:41:43;;;;;;;8.90;5.23;;;15.00;77.10;;;;;;7376179;19;21232;-81
2022/09/23 07:44:13;;;;;;;6.20;5.30;;;15.10;74.70;;;;;;7374467;19;20420;-80
2022/09/23 07:46:42;;;;;;;5.07;4.53;;;15.30;72.20;;;;;;7374218;19;20497;-79
2022/09/23 07:49:12;;;;;;;5.03;4.40;;;15.50;71.10;;;;;;7379015;19;20408;-80
2022/09/23 07:51:45;;;;;;;8.60;5.00;;;15.60;69.20;;;;;;7380500;19;20947;-80
2022/09/23 07:54:18;;;;;;;7.73;5.53;;;15.60;68.70;;;;;;7376223;19;20933;-80
2022/09/23 07:56:48;;;;;;;7.03;5.10;;;15.70;67.80;;;;;;7378826;19;20455;-80
2022/09/23 07:59:19;;;;;;;8.03;5.30;;;15.80;67.70;;;;;;7377293;19;20400;-80
2022/09/23 08:01:51;;;;;;;6.90;5.17;;;15.90;67.00;;;;;;7376425;19;20541;-80
2022/09/23 08:04:24;;;;;;;7.93;5.67;;;15.90;65.50;;;;;;7379924;19;20400;-79
2022/09/23 08:06:56;;;;;;;11.40;5.53;;;15.90;67.00;;;;;;7379250;19;20538;-80
2022/09/23 08:09:32;;;;;;;5.70;5.20;;;15.60;66.10;;;;;;7378243;19;20487;-80
2022/09/23 08:12:03;;;;;;;6.77;4.97;;;15.60;65.90;;;;;;7376061;19;20433;-81
2022/09/23 08:14:33;;;;;;;5.43;4.00;;;15.70;66.00;;;;;;7378733;19;20511;-80
2022/09/23 08:17:02;;;;;;;6.80;4.53;;;15.90;65.30;;;;;;7374048;19;20427;-80
2022/09/23 08:19:31;;;;;;;8.00;4.83;;;16.20;64.60;;;;;;7378527;19;20401;-80
2022/09/23 08:22:01;;;;;;;6.13;5.10;;;16.30;64.70;;;;;;7377809;19;20416;-80
2022/09/23 08:24:33;;;;;;;8.60;4.63;;;16.60;63.40;;;;;;7373430;19;20768;-81
2022/09/23 08:27:03;;;;;;;7.00;4.47;;;16.60;62.70;;;;;;7377606;19;21145;-80
2022/09/23 08:29:32;;;;;;;8.80;4.50;;;16.70;62.50;;;;;;7373662;19;20419;-80
2022/09/23 08:32:02;;;;;;;6.30;4.50;;;16.70;62.10;;;;;;7375810;19;20854;-80
2022/09/23 08:34:31;;;;;;;8.63;4.63;;;16.90;62.90;;;;;;7370005;19;20849;-80
2022/09/23 08:37:00;;;;;;;10.60;4.70;;;17.10;61.80;;;;;;7369571;19;20423;-81
2022/09/23 08:39:32;;;;;;;6.50;5.90;;;17.20;60.20;;;;;;7368911;19;20407;-80
2022/09/23 08:42:16;;;;;;;6.70;4.37;;;17.20;59.80;;;;;;7371256;19;20429;-81
2022/09/23 08:44:52;;;;;;;5.93;4.63;;;17.60;59.70;;;;;;7370021;19;21018;-80
2022/09/23 08:47:26;;;;;;;4.80;4.30;;;18.00;58.40;;;;;;7372059;19;20991;-78
2022/09/23 08:50:02;;;;;;;6.10;3.30;;;18.40;57.70;;;;;;7379074;19;20800;-80
2022/09/23 08:52:41;;;;;;;3.50;2.50;;;18.70;56.70;;;;;;7368064;19;20949;-78
2022/09/23 08:55:15;;;;;;;4.80;2.60;;;19.00;56.30;;;;;;7376819;19;20419;-81
2022/09/23 08:58:05;;;;;;;12.53;4.23;;;19.30;55.30;;;;;;7376338;19;20368;-81
2022/09/23 09:00:38;;;;;;;5.67;3.70;;;19.70;55.10;;;;;;7376996;19;20411;-81
2022/09/23 09:03:22;;;;;;;3.60;2.60;;;19.90;54.00;;;;;;7372759;19;20404;-81
2022/09/23 09:05:53;;;;;;;4.70;2.70;;;20.20;53.40;;;;;;7370908;19;20397;-80
2022/09/23 09:08:30;;;;;;;5.80;3.30;;;20.10;52.80;;;;;;7374900;19;20814;-81
2022/09/23 09:11:02;;;;;;;3.50;2.97;;;20.20;53.00;;;;;;7375977;19;21077;-80
2022/09/23 09:13:41;;;;;;;2.53;2.23;;;20.30;52.50;;;;;;7374504;19;20420;-81
2022/09/23 09:16:29;;;;;;;4.10;2.93;;;20.70;52.60;;;;;;7370500;19;20531;-80
2022/09/23 09:19:00;;;;;;;4.20;2.57;;;20.80;52.50;;;;;;7374979;19;20868;-80
2022/09/23 09:21:37;;;;;;;4.40;3.07;;;21.20;51.60;;;;;;7375166;19;20550;-80
2022/09/23 09:24:18;;;;;;;4.23;2.87;;;21.60;50.70;;;;;;7375867;19;20412;-82
2022/09/23 09:26:53;;;;;;;2.93;2.63;;;22.30;50.00;;;;;;7374362;19;20467;-80
2022/09/23 09:29:28;;;;;;;6.70;2.70;;;22.70;48.80;;;;;;7371482;19;20990;-81
2022/09/23 09:31:59;;;;;;;4.27;2.57;;;22.20;49.00;;;;;;7376765;19;21011;-80
2022/09/23 09:34:36;;;;;;;4.93;2.70;;;21.90;49.20;;;;;;7376733;19;20415;-81
2022/09/23 09:37:12;;;;;;;4.47;2.83;;;22.00;49.50;;;;;;7373022;19;20847;-81
2022/09/23 09:39:42;;;;;;;5.67;2.93;;;22.70;49.00;;;;;;7375020;19;20851;-80
2022/09/23 09:42:20;;;;;;;6.93;3.60;;;23.60;47.90;;;;;;7375899;19;20499;-80
2022/09/23 09:44:58;;;;;;;3.27;2.57;;;24.30;46.80;;;;;;7370258;19;20531;-80
2022/09/23 09:47:37;;;;;;;6.83;3.30;;;24.60;45.40;;;;;;7375516;19;20442;-80
2022/09/23 09:50:10;;;;;;;3.73;2.83;;;25.10;44.70;;;;;;7372707;19;20417;-79
2022/09/23 09:52:42;;;;;;;3.70;2.20;;;25.10;43.80;;;;;;7376251;19;20434;-81
2022/09/23 09:55:26;;;;;;;3.90;2.07;;;25.50;43.50;;;;;;7377772;19;20488;-81
2022/09/23 09:58:03;;;;;;;5.00;2.57;;;26.40;41.70;;;;;;7378475;19;20408;-78
2022/09/23 10:00:46;;;;;;;4.10;2.97;;;27.10;40.40;;;;;;7378551;19;20507;-82
2022/09/23 10:03:32;;;;;;;3.40;2.50;;;27.70;39.40;;;;;;7375617;19;20408;-80
2022/09/23 10:06:01;;;;;;;3.03;2.57;;;28.30;38.60;;;;;;7373956;19;20953;-79
2022/09/23 10:08:35;;;;;;;3.37;2.03;;;28.80;37.40;;;;;;7374979;19;20404;-80
2022/09/23 10:11:07;;;;;;;3.10;2.60;;;29.40;37.00;;;;;;7376706;19;20400;-80
2022/09/23 10:13:41;;;;;;;4.50;2.47;;;29.80;36.20;;;;;;7375840;19;20411;-80
2022/09/23 10:16:11;;;;;;;2.53;2.17;;;29.30;35.30;;;;;;7375925;19;20427;-80
2022/09/23 10:18:52;;;;;;;3.57;2.53;;;28.50;37.30;;;;;;7381452;19;20524;-81
2022/09/23 10:21:24;;;;;;;3.83;2.97;;;28.80;37.40;;;;;;7381044;19;20945;-81
2022/09/23 10:23:59;;;;;;;2.60;2.40;;;28.90;36.70;;;;;;7381190;19;20491;-81
2022/09/23 10:26:32;;;;;;;3.73;3.43;;;29.80;36.20;;;;;;7380247;19;21084;-82
2022/09/23 10:29:21;;;;;;;3.90;2.97;;;30.30;35.20;;;;;;7384078;19;20419;-81
2022/09/23 10:31:52;;;;;;;2.90;2.60;;;31.00;34.40;;;;;;7384332;19;20388;-81
2022/09/23 10:34:27;;;;;;;4.50;2.40;;;31.60;33.30;;;;;;7377932;19;20968;-81
2022/09/23 10:37:08;;;;;;;5.20;2.80;;;32.00;32.70;;;;;;7383315;19;21003;-81
2022/09/23 10:48:13;;;;;;;3.70;3.13;;;28.60;36.20;;;;;;7380350;19;20421;-80
2022/09/23 10:50:47;;;;;;;9.23;3.13;;;27.20;37.60;;;;;;7378368;19;20475;-81
2022/09/23 10:53:23;;;;;;;2.90;2.10;;;26.00;39.80;;;;;;7378559;19;20889;-79
2022/09/23 10:56:25;;;;;;;5.50;3.00;;;26.20;40.50;;;;;;7383724;19;20836;-80
2022/09/23 10:59:34;;;;;;;3.40;2.70;;;27.00;40.20;;;;;;7381463;19;21022;-79
2022/09/23 11:02:18;;;;;;;2.73;2.50;;;28.30;38.20;;;;;;7377489;19;20457;-79
2022/09/23 11:05:14;;;;;;;3.50;2.83;;;30.00;36.10;;;;;;7378666;19;20429;-80
2022/09/23 11:07:49;;;;;;;3.90;3.10;;;31.40;33.60;;;;;;7384058;19;21471;-79
2022/09/23 11:10:56;;;;;;;3.90;3.10;;;32.10;32.80;;;;;;7381944;19;20412;-81
2022/09/23 11:14:02;;;;;;;3.10;2.67;;;31.30;33.40;;;;;;7392779;19;20416;-78
2022/09/23 11:16:44;;;;;;;4.40;3.27;;;31.70;33.20;;;;;;7394981;19;20436;-80
2022/09/23 11:19:36;;;;;;;7.00;3.03;;;32.10;32.20;;;;;;7391554;19;20479;-79
2022/09/23 11:22:23;;;;;;;4.77;3.00;;;32.40;31.70;;;;;;7390947;19;20406;-81
2022/09/23 11:25:29;;;;;;;3.67;2.77;;;32.30;32.20;;;;;;7389097;19;20400;-78
2022/09/23 11:28:28;;;;;;;3.57;3.23;;;32.20;32.10;;;;;;7378526;19;20415;-81
2022/09/23 11:31:08;;;;;;;2.80;2.60;;;31.30;32.50;;;;;;7381624;19;20943;-80
2022/09/23 11:33:54;;;;;;;4.33;3.93;;;30.10;34.10;;;;;;7377952;19;20412;-80
2022/09/23 11:36:31;;;;;;;4.03;3.30;;;28.50;36.00;;;;;;7377567;19;21016;-79
2022/09/23 11:39:07;;;;;;;4.00;2.83;;;27.30;37.90;;;;;;7377794;19;20407;-79
2022/09/23 11:41:40;;;;;;;5.57;2.80;;;26.10;39.70;;;;;;7379245;19;20450;-81
2022/09/23 11:44:18;;;;;;;5.17;2.50;;;25.70;41.10;;;;;;7380304;19;20795;-78
2022/09/23 11:46:53;;;;;;;4.70;2.60;;;25.50;41.40;;;;;;7378837;19;21026;-79
2022/09/23 11:49:32;;;;;;;4.00;2.70;;;25.30;42.10;;;;;;7379214;19;20423;-81
2022/09/23 11:52:11;;;;;;;3.37;2.90;;;25.30;41.40;;;;;;7377724;19;20376;-80
2022/09/23 11:54:47;;;;;;;5.10;3.20;;;25.20;42.20;;;;;;7378267;19;20407;-81
2022/09/23 11:57:25;;;;;;;3.40;3.07;;;24.60;41.90;;;;;;7376623;19;20939;-80
2022/09/23 12:00:02;;;;;;;3.60;2.93;;;24.40;42.80;;;;;;7378350;19;20412;-80
2022/09/23 12:02:43;;;;;;;4.43;3.10;;;24.90;42.30;;;;;;7375585;19;20387;-79
2022/09/23 12:05:18;;;;;;;4.40;2.57;;;25.80;41.00;;;;;;7374178;19;20458;-79
2022/09/23 12:07:56;;;;;;;3.00;2.70;;;26.30;39.20;;;;;;7380206;19;20929;-79
2022/09/23 12:10:29;;;;;;;4.30;2.60;;;27.10;38.40;;;;;;7377624;19;20703;-81
2022/09/23 12:13:07;;;;;;;3.40;2.60;;;28.00;37.30;;;;;;7374784;19;20898;-80
2022/09/23 12:15:49;;;;;;;3.13;2.60;;;28.10;36.50;;;;;;7380389;19;20427;-81
2022/09/23 12:18:36;;;;;;;5.83;2.90;;;28.40;36.80;;;;;;7373828;19;20912;-81
2022/09/23 12:21:25;;;;;;;3.70;2.57;;;28.90;35.80;;;;;;7377430;19;20766;-80
2022/09/23 12:24:19;;;;;;;5.33;2.80;;;28.80;36.10;;;;;;7375457;19;20384;-81
2022/09/23 12:26:55;;;;;;;4.60;2.63;;;29.20;35.70;;;;;;7375639;19;20532;-80
2022/09/23 12:29:28;;;;;;;3.63;3.30;;;29.30;35.20;;;;;;7371514;19;20420;-81
2022/09/23 12:31:57;;;;;;;3.67;2.50;;;29.20;35.00;;;;;;7370034;19;20414;-81
2022/09/23 12:34:35;;;;;;;5.47;2.60;;;30.00;34.50;;;;;;7374638;19;20424;-81
2022/09/23 12:37:06;;;;;;;3.70;2.63;;;30.60;34.00;;;;;;7375395;19;20415;-79
2022/09/23 12:39:40;;;;;;;3.63;2.77;;;30.60;33.20;;;;;;7366684;19;20493;-79
2022/09/23 12:42:18;;;;;;;5.83;3.10;;;30.90;33.50;;;;;;7376874;19;20409;-80
2022/09/23 12:44:50;;;;;;;4.10;3.40;;;30.90;33.70;;;;;;7372276;19;21112;-80
2022/09/23 12:47:40;;;;;;;4.97;3.10;;;31.20;32.90;;;;;;7375284;19;20410;-81
2022/09/23 12:50:39;;;;;;;3.97;3.10;;;31.30;33.10;;;;;;7377268;19;20404;-80
2022/09/23 12:53:39;;;;;;;2.43;2.20;;;32.00;31.60;;;;;;7378376;19;20401;-80
2022/09/23 12:56:20;;;;;;;3.87;2.80;;;32.10;31.40;;;;;;7380518;19;20396;-80
2022/09/23 12:59:27;;;;;;;3.30;2.40;;;31.80;31.30;;;;;;7377394;19;20774;-80
2022/09/23 13:01:58;;;;;;;3.43;3.00;;;32.00;31.70;;;;;;7377704;19;20818;-80
2022/09/23 13:07:23;;;;;;;3.43;2.90;;;31.70;32.30;;;;;;7376993;19;20404;-80
2022/09/23 13:10:04;;;;;;;3.47;3.17;;;31.90;32.00;;;;;;7375383;19;20424;-80
2022/09/23 13:12:40;;;;;;;5.93;3.20;;;31.70;31.20;;;;;;7376159;19;21104;-80
2022/09/23 13:15:23;;;;;;;3.80;3.40;;;31.30;32.80;;;;;;7375235;19;20449;-80
2022/09/23 13:18:33;;;;;;;3.57;3.27;;;31.20;32.70;;;;;;7349552;19;20440;-80
2022/09/23 13:21:02;;;;;;;4.30;3.10;;;31.20;32.70;;;;;;7372373;19;20883;-80
2022/09/23 13:23:32;;;;;;;4.00;3.60;;;31.00;33.30;;;;;;7371264;19;20967;-80
2022/09/23 13:26:11;;;;;;;4.87;3.47;;;30.70;33.00;;;;;;7375726;19;20767;-80
2022/09/23 13:28:55;;;;;;;5.70;3.60;;;30.60;33.20;;;;;;7376249;19;20923;-80
2022/09/23 13:31:27;;;;;;;4.73;3.73;;;30.10;33.90;;;;;;7373768;19;20475;-80
2022/09/23 13:34:03;;;;;;;4.43;3.93;;;29.70;34.20;;;;;;7373914;19;20420;-80
2022/09/23 13:36:45;;;;;;;6.40;4.30;;;29.30;34.80;;;;;;7374479;19;20768;-80
2022/09/23 13:39:16;;;;;;;4.30;3.77;;;28.90;35.60;;;;;;7376456;19;20421;-79
2022/09/23 13:41:48;;;;;;;4.40;3.77;;;28.50;36.00;;;;;;7373737;19;20409;-78
2022/09/23 13:44:22;;;;;;;4.87;4.37;;;28.00;36.50;;;;;;7375217;19;20532;-81